Startpagina
METAR-TAF:

METAR-TAF

Vliegvelden :

Shillong, India

breedte: 25-42-13N, lengte: 091-58-43E, hoogte: 887 m

Actueel weer

Dit bericht is 3 uur en het 32 minuten geleden gemaakt, om 08:30 UTC
Wind 2 kt uit het noordoosten
Temperatuur 22°C
Vochtigheid 57%
Druk 1019 hPa
Zicht: 6000 m
Weinig wolken op 2000 ft
Verspreide wolken op 9000 ft

METAR: VEBI 150830Z 05002KT 6000 FEW020 SCT090 22/13 Q1019

Tijdstip: 17:32 (12:02 UTC)


TAF: ontbreekt

Waarnemingen en weersverwachtingen van meer dan 4000 vliegvelden (METAR en TAF).

De beschikbare stations zijn de gele en rode punten op de kaart.

Ga met uw muis naar het station om de naam te zien.

Klik dan om waarnemingen en weersverwachtingen te zien.

kaart wijzigen: klik op de groene knoppen met een zwart kruis om in te zoomen, op de groene knop met een streepje om uit te zoomen of op de groene pijlen voor aangrenzende kaarten.


METAR-TAF: